Terminal Aerodrome Forecast
Issued by NWS

Home | Current Version | Previous Version | Text Only | Print | Product List | Glossary On
Versions: 1 2 3 4 5 6 7 8 9 10 11 12 13 14 15 16 17 18 19 20 21 22
000
FTUS43 KDLH 301100 RRA
TAFHIB
TAF
KHIB 301145Z 3012/3112 VRB04KT P6SM BKN090
     FM302000 09006KT P6SM -RA SCT015 OVC025
      TEMPO 3020/3024 3SM -RASN SCT008 OVC012
     FM310000 VRB04KT 2SM -SN OVC012
     FM310800 VRB03KT P6SM OVC010=

USA.gov is the U.S. government's official web portal to all federal, state and local government web resources and services.